sensor_id;sensor_type;location;lat;lon;timestamp;P1;durP1;ratioP1;P2;durP2;ratioP2
36457;SDS011;22480;50.546;12.292;2024-01-11T00:00:30;91.70;;;44.30;;
36457;SDS011;22480;50.546;12.292;2024-01-11T00:02:56;90.37;;;43.83;;
36457;SDS011;22480;50.546;12.292;2024-01-11T00:05:22;96.63;;;44.60;;
36457;SDS011;22480;50.546;12.292;2024-01-11T00:07:48;86.60;;;44.37;;
36457;SDS011;22480;50.546;12.292;2024-01-11T00:10:14;90.00;;;43.80;;
36457;SDS011;22480;50.546;12.292;2024-01-11T00:12:40;93.83;;;43.13;;
36457;SDS011;22480;50.546;12.292;2024-01-11T00:15:06;94.00;;;44.03;;
36457;SDS011;22480;50.546;12.292;2024-01-11T00:17:32;91.23;;;44.20;;
36457;SDS011;22480;50.546;12.292;2024-01-11T00:19:58;104.77;;;46.97;;
36457;SDS011;22480;50.546;12.292;2024-01-11T00:22:24;81.37;;;42.77;;
36457;SDS011;22480;50.546;12.292;2024-01-11T00:24:49;89.10;;;42.87;;
36457;SDS011;22480;50.546;12.292;2024-01-11T00:27:15;89.27;;;42.77;;
36457;SDS011;22480;50.546;12.292;2024-01-11T00:29:41;89.70;;;42.07;;
36457;SDS011;22480;50.546;12.292;2024-01-11T00:32:06;86.23;;;42.23;;
36457;SDS011;22480;50.546;12.292;2024-01-11T00:34:32;79.30;;;40.83;;
36457;SDS011;22480;50.546;12.292;2024-01-11T00:36:58;87.70;;;42.10;;
36457;SDS011;22480;50.546;12.292;2024-01-11T00:39:24;79.83;;;39.93;;
36457;SDS011;22480;50.546;12.292;2024-01-11T00:41:50;84.67;;;39.80;;
36457;SDS011;22480;50.546;12.292;2024-01-11T00:44:16;72.43;;;37.57;;
36457;SDS011;22480;50.546;12.292;2024-01-11T00:46:42;84.97;;;40.57;;
36457;SDS011;22480;50.546;12.292;2024-01-11T00:49:08;88.40;;;43.23;;
36457;SDS011;22480;50.546;12.292;2024-01-11T00:51:33;73.50;;;36.87;;
36457;SDS011;22480;50.546;12.292;2024-01-11T00:53:59;84.40;;;37.40;;
36457;SDS011;22480;50.546;12.292;2024-01-11T00:56:25;79.23;;;38.87;;
36457;SDS011;22480;50.546;12.292;2024-01-11T00:58:51;84.17;;;40.03;;
36457;SDS011;22480;50.546;12.292;2024-01-11T01:01:17;78.43;;;38.00;;
36457;SDS011;22480;50.546;12.292;2024-01-11T01:03:43;77.87;;;36.43;;
36457;SDS011;22480;50.546;12.292;2024-01-11T01:06:08;75.17;;;36.17;;
36457;SDS011;22480;50.546;12.292;2024-01-11T01:08:34;75.77;;;36.87;;
36457;SDS011;22480;50.546;12.292;2024-01-11T01:11:00;80.70;;;37.90;;
36457;SDS011;22480;50.546;12.292;2024-01-11T01:13:25;74.97;;;36.20;;
36457;SDS011;22480;50.546;12.292;2024-01-11T01:15:51;71.67;;;35.37;;
36457;SDS011;22480;50.546;12.292;2024-01-11T01:18:17;77.17;;;38.97;;
36457;SDS011;22480;50.546;12.292;2024-01-11T01:20:43;71.20;;;33.43;;
36457;SDS011;22480;50.546;12.292;2024-01-11T01:23:08;72.37;;;35.37;;
36457;SDS011;22480;50.546;12.292;2024-01-11T01:25:34;64.80;;;34.03;;
36457;SDS011;22480;50.546;12.292;2024-01-11T01:28:00;77.53;;;34.83;;
36457;SDS011;22480;50.546;12.292;2024-01-11T01:30:26;69.83;;;33.23;;
36457;SDS011;22480;50.546;12.292;2024-01-11T01:32:52;54.27;;;30.03;;
36457;SDS011;22480;50.546;12.292;2024-01-11T01:35:18;65.73;;;30.13;;
36457;SDS011;22480;50.546;12.292;2024-01-11T01:37:44;66.10;;;30.00;;
36457;SDS011;22480;50.546;12.292;2024-01-11T01:40:11;57.33;;;28.00;;
36457;SDS011;22480;50.546;12.292;2024-01-11T01:42:43;67.47;;;29.57;;
36457;SDS011;22480;50.546;12.292;2024-01-11T01:45:10;52.87;;;28.83;;
36457;SDS011;22480;50.546;12.292;2024-01-11T01:47:36;55.90;;;27.07;;
36457;SDS011;22480;50.546;12.292;2024-01-11T01:50:04;55.97;;;27.00;;
36457;SDS011;22480;50.546;12.292;2024-01-11T01:52:31;60.53;;;30.03;;
36457;SDS011;22480;50.546;12.292;2024-01-11T01:54:58;52.37;;;28.17;;
36457;SDS011;22480;50.546;12.292;2024-01-11T01:57:24;54.70;;;26.17;;
36457;SDS011;22480;50.546;12.292;2024-01-11T01:59:51;59.73;;;27.70;;
36457;SDS011;22480;50.546;12.292;2024-01-11T02:02:18;58.00;;;28.60;;
36457;SDS011;22480;50.546;12.292;2024-01-11T02:04:46;58.13;;;28.65;;
36457;SDS011;22480;50.546;12.292;2024-01-11T02:07:12;53.87;;;28.67;;
36457;SDS011;22480;50.546;12.292;2024-01-11T02:09:39;55.57;;;28.33;;
36457;SDS011;22480;50.546;12.292;2024-01-11T02:12:05;58.77;;;29.57;;
36457;SDS011;22480;50.546;12.292;2024-01-11T02:14:39;58.57;;;29.33;;
36457;SDS011;22480;50.546;12.292;2024-01-11T02:17:05;52.55;;;29.17;;
36457;SDS011;22480;50.546;12.292;2024-01-11T02:19:31;56.33;;;28.37;;
36457;SDS011;22480;50.546;12.292;2024-01-11T02:22:00;57.80;;;29.97;;
36457;SDS011;22480;50.546;12.292;2024-01-11T02:24:33;58.80;;;28.27;;
36457;SDS011;22480;50.546;12.292;2024-01-11T02:27:02;70.80;;;33.13;;
36457;SDS011;22480;50.546;12.292;2024-01-11T02:29:29;57.73;;;31.60;;
36457;SDS011;22480;50.546;12.292;2024-01-11T02:31:56;69.37;;;32.53;;
36457;SDS011;22480;50.546;12.292;2024-01-11T02:34:23;59.73;;;29.57;;
36457;SDS011;22480;50.546;12.292;2024-01-11T02:36:50;67.80;;;33.33;;
36457;SDS011;22480;50.546;12.292;2024-01-11T02:39:16;63.13;;;30.67;;
36457;SDS011;22480;50.546;12.292;2024-01-11T02:41:44;62.97;;;30.57;;
36457;SDS011;22480;50.546;12.292;2024-01-11T02:44:10;63.63;;;30.90;;
36457;SDS011;22480;50.546;12.292;2024-01-11T02:46:36;67.93;;;31.83;;
36457;SDS011;22480;50.546;12.292;2024-01-11T02:49:02;61.43;;;31.93;;
36457;SDS011;22480;50.546;12.292;2024-01-11T02:51:27;77.43;;;36.80;;
36457;SDS011;22480;50.546;12.292;2024-01-11T02:53:53;74.37;;;34.30;;
36457;SDS011;22480;50.546;12.292;2024-01-11T02:56:19;69.83;;;35.63;;
36457;SDS011;22480;50.546;12.292;2024-01-11T02:58:45;68.27;;;33.70;;
36457;SDS011;22480;50.546;12.292;2024-01-11T03:01:10;64.03;;;32.90;;
36457;SDS011;22480;50.546;12.292;2024-01-11T03:03:36;76.10;;;34.63;;
36457;SDS011;22480;50.546;12.292;2024-01-11T03:06:02;66.10;;;34.20;;
36457;SDS011;22480;50.546;12.292;2024-01-11T03:08:28;64.57;;;32.97;;
36457;SDS011;22480;50.546;12.292;2024-01-11T03:10:54;65.90;;;33.60;;
36457;SDS011;22480;50.546;12.292;2024-01-11T03:13:19;68.27;;;33.73;;
36457;SDS011;22480;50.546;12.292;2024-01-11T03:15:45;79.60;;;36.37;;
36457;SDS011;22480;50.546;12.292;2024-01-11T03:18:11;73.17;;;34.47;;
36457;SDS011;22480;50.546;12.292;2024-01-11T03:20:37;76.57;;;35.80;;
36457;SDS011;22480;50.546;12.292;2024-01-11T03:23:03;70.37;;;33.67;;
36457;SDS011;22480;50.546;12.292;2024-01-11T03:25:31;62.17;;;31.87;;
36457;SDS011;22480;50.546;12.292;2024-01-11T03:28:00;72.50;;;34.40;;
36457;SDS011;22480;50.546;12.292;2024-01-11T03:30:25;70.20;;;33.93;;
36457;SDS011;22480;50.546;12.292;2024-01-11T03:32:51;74.67;;;36.50;;
36457;SDS011;22480;50.546;12.292;2024-01-11T03:35:17;63.83;;;33.20;;
36457;SDS011;22480;50.546;12.292;2024-01-11T03:37:44;69.63;;;32.77;;
36457;SDS011;22480;50.546;12.292;2024-01-11T03:40:10;68.47;;;34.27;;
36457;SDS011;22480;50.546;12.292;2024-01-11T03:42:36;68.97;;;32.73;;
36457;SDS011;22480;50.546;12.292;2024-01-11T03:45:02;61.83;;;30.87;;
36457;SDS011;22480;50.546;12.292;2024-01-11T03:47:29;65.73;;;32.30;;
36457;SDS011;22480;50.546;12.292;2024-01-11T03:49:55;77.13;;;37.70;;
36457;SDS011;22480;50.546;12.292;2024-01-11T03:52:20;156.70;;;64.13;;
36457;SDS011;22480;50.546;12.292;2024-01-11T03:54:46;118.00;;;54.27;;
36457;SDS011;22480;50.546;12.292;2024-01-11T03:57:12;78.33;;;39.13;;
36457;SDS011;22480;50.546;12.292;2024-01-11T03:59:38;69.10;;;34.83;;
36457;SDS011;22480;50.546;12.292;2024-01-11T04:02:03;75.70;;;35.13;;
36457;SDS011;22480;50.546;12.292;2024-01-11T04:04:29;73.93;;;36.60;;
36457;SDS011;22480;50.546;12.292;2024-01-11T04:06:55;71.40;;;34.90;;
36457;SDS011;22480;50.546;12.292;2024-01-11T04:09:20;75.63;;;35.33;;
36457;SDS011;22480;50.546;12.292;2024-01-11T04:11:46;75.30;;;35.70;;
36457;SDS011;22480;50.546;12.292;2024-01-11T04:14:12;67.30;;;33.70;;
36457;SDS011;22480;50.546;12.292;2024-01-11T04:16:41;66.50;;;32.27;;
36457;SDS011;22480;50.546;12.292;2024-01-11T04:19:10;84.13;;;38.57;;
36457;SDS011;22480;50.546;12.292;2024-01-11T04:21:36;77.13;;;37.97;;
36457;SDS011;22480;50.546;12.292;2024-01-11T04:24:04;68.30;;;33.87;;
36457;SDS011;22480;50.546;12.292;2024-01-11T04:26:31;82.70;;;41.13;;
36457;SDS011;22480;50.546;12.292;2024-01-11T04:28:57;69.77;;;35.60;;
36457;SDS011;22480;50.546;12.292;2024-01-11T04:31:24;73.17;;;37.17;;
36457;SDS011;22480;50.546;12.292;2024-01-11T04:33:51;74.57;;;36.73;;
36457;SDS011;22480;50.546;12.292;2024-01-11T04:36:17;72.77;;;34.60;;
36457;SDS011;22480;50.546;12.292;2024-01-11T04:38:42;75.50;;;36.23;;
36457;SDS011;22480;50.546;12.292;2024-01-11T04:41:12;76.67;;;32.77;;
36457;SDS011;22480;50.546;12.292;2024-01-11T04:43:42;69.63;;;32.15;;
36457;SDS011;22480;50.546;12.292;2024-01-11T04:46:21;58.95;;;29.65;;
36457;SDS011;22480;50.546;12.292;2024-01-11T04:48:47;65.20;;;32.97;;
36457;SDS011;22480;50.546;12.292;2024-01-11T04:51:14;61.57;;;29.73;;
36457;SDS011;22480;50.546;12.292;2024-01-11T04:53:42;67.47;;;31.97;;
36457;SDS011;22480;50.546;12.292;2024-01-11T04:56:09;68.47;;;32.43;;
36457;SDS011;22480;50.546;12.292;2024-01-11T04:58:36;61.97;;;30.83;;
36457;SDS011;22480;50.546;12.292;2024-01-11T05:01:07;55.33;;;28.57;;
36457;SDS011;22480;50.546;12.292;2024-01-11T05:03:37;57.87;;;28.57;;
36457;SDS011;22480;50.546;12.292;2024-01-11T05:06:03;63.13;;;30.80;;
36457;SDS011;22480;50.546;12.292;2024-01-11T05:08:29;66.53;;;34.30;;
36457;SDS011;22480;50.546;12.292;2024-01-11T05:10:55;72.87;;;34.87;;
36457;SDS011;22480;50.546;12.292;2024-01-11T05:13:20;72.17;;;34.83;;
36457;SDS011;22480;50.546;12.292;2024-01-11T05:15:46;72.37;;;35.07;;
36457;SDS011;22480;50.546;12.292;2024-01-11T05:18:12;68.90;;;31.47;;
36457;SDS011;22480;50.546;12.292;2024-01-11T05:20:38;66.40;;;30.17;;
36457;SDS011;22480;50.546;12.292;2024-01-11T05:23:04;71.77;;;34.70;;
36457;SDS011;22480;50.546;12.292;2024-01-11T05:25:31;65.90;;;31.80;;
36457;SDS011;22480;50.546;12.292;2024-01-11T05:28:00;71.72;;;33.30;;
36457;SDS011;22480;50.546;12.292;2024-01-11T05:30:30;71.20;;;34.00;;
36457;SDS011;22480;50.546;12.292;2024-01-11T05:32:55;71.60;;;32.22;;
36457;SDS011;22480;50.546;12.292;2024-01-11T05:35:21;66.73;;;32.43;;
36457;SDS011;22480;50.546;12.292;2024-01-11T05:37:49;65.93;;;31.73;;
36457;SDS011;22480;50.546;12.292;2024-01-11T05:40:16;62.17;;;30.23;;
36457;SDS011;22480;50.546;12.292;2024-01-11T05:42:41;66.03;;;33.20;;
36457;SDS011;22480;50.546;12.292;2024-01-11T05:45:07;65.27;;;31.23;;
36457;SDS011;22480;50.546;12.292;2024-01-11T05:47:33;70.20;;;32.07;;
36457;SDS011;22480;50.546;12.292;2024-01-11T05:50:02;66.97;;;33.70;;
36457;SDS011;22480;50.546;12.292;2024-01-11T05:52:28;51.53;;;25.83;;
36457;SDS011;22480;50.546;12.292;2024-01-11T05:54:57;68.40;;;32.83;;
36457;SDS011;22480;50.546;12.292;2024-01-11T05:57:22;65.30;;;32.33;;
36457;SDS011;22480;50.546;12.292;2024-01-11T05:59:51;78.77;;;36.07;;
36457;SDS011;22480;50.546;12.292;2024-01-11T06:02:17;82.70;;;35.50;;
36457;SDS011;22480;50.546;12.292;2024-01-11T06:04:43;76.73;;;34.83;;
36457;SDS011;22480;50.546;12.292;2024-01-11T06:07:09;76.57;;;35.83;;
36457;SDS011;22480;50.546;12.292;2024-01-11T06:09:34;69.07;;;34.50;;
36457;SDS011;22480;50.546;12.292;2024-01-11T06:12:00;75.53;;;35.77;;
36457;SDS011;22480;50.546;12.292;2024-01-11T06:14:26;72.87;;;35.93;;
36457;SDS011;22480;50.546;12.292;2024-01-11T06:16:52;75.00;;;37.07;;
36457;SDS011;22480;50.546;12.292;2024-01-11T06:19:18;70.63;;;36.87;;
36457;SDS011;22480;50.546;12.292;2024-01-11T06:21:43;68.80;;;33.80;;
36457;SDS011;22480;50.546;12.292;2024-01-11T06:24:09;76.13;;;35.90;;
36457;SDS011;22480;50.546;12.292;2024-01-11T06:26:35;75.53;;;35.73;;
36457;SDS011;22480;50.546;12.292;2024-01-11T06:29:00;69.23;;;33.33;;
36457;SDS011;22480;50.546;12.292;2024-01-11T06:31:26;76.83;;;37.63;;
36457;SDS011;22480;50.546;12.292;2024-01-11T06:33:52;74.43;;;37.43;;
36457;SDS011;22480;50.546;12.292;2024-01-11T06:36:17;87.23;;;41.87;;
36457;SDS011;22480;50.546;12.292;2024-01-11T06:38:43;83.93;;;41.33;;
36457;SDS011;22480;50.546;12.292;2024-01-11T06:41:09;91.47;;;41.10;;
36457;SDS011;22480;50.546;12.292;2024-01-11T06:43:34;70.10;;;33.87;;
36457;SDS011;22480;50.546;12.292;2024-01-11T06:46:03;66.90;;;32.33;;
36457;SDS011;22480;50.546;12.292;2024-01-11T06:48:30;71.20;;;33.10;;
36457;SDS011;22480;50.546;12.292;2024-01-11T06:50:56;65.73;;;31.07;;
36457;SDS011;22480;50.546;12.292;2024-01-11T06:53:22;62.70;;;29.10;;
36457;SDS011;22480;50.546;12.292;2024-01-11T06:55:47;56.77;;;28.43;;
36457;SDS011;22480;50.546;12.292;2024-01-11T06:58:15;63.30;;;31.10;;
36457;SDS011;22480;50.546;12.292;2024-01-11T07:00:41;54.30;;;29.13;;
36457;SDS011;22480;50.546;12.292;2024-01-11T07:03:10;62.23;;;28.90;;
36457;SDS011;22480;50.546;12.292;2024-01-11T07:05:36;54.20;;;28.57;;
36457;SDS011;22480;50.546;12.292;2024-01-11T07:08:02;62.53;;;29.87;;
36457;SDS011;22480;50.546;12.292;2024-01-11T07:10:29;52.57;;;27.90;;
36457;SDS011;22480;50.546;12.292;2024-01-11T07:12:55;62.57;;;28.63;;
36457;SDS011;22480;50.546;12.292;2024-01-11T07:15:21;60.53;;;27.10;;
36457;SDS011;22480;50.546;12.292;2024-01-11T07:17:46;60.70;;;27.93;;
36457;SDS011;22480;50.546;12.292;2024-01-11T07:20:12;50.57;;;24.87;;
36457;SDS011;22480;50.546;12.292;2024-01-11T07:22:40;55.17;;;26.47;;
36457;SDS011;22480;50.546;12.292;2024-01-11T07:25:06;60.30;;;26.70;;
36457;SDS011;22480;50.546;12.292;2024-01-11T07:27:32;49.83;;;27.27;;
36457;SDS011;22480;50.546;12.292;2024-01-11T07:29:57;53.97;;;25.33;;
36457;SDS011;22480;50.546;12.292;2024-01-11T07:32:23;56.00;;;29.67;;
36457;SDS011;22480;50.546;12.292;2024-01-11T07:34:49;67.70;;;32.83;;
36457;SDS011;22480;50.546;12.292;2024-01-11T07:37:15;61.30;;;32.10;;
36457;SDS011;22480;50.546;12.292;2024-01-11T07:39:40;63.23;;;30.13;;
36457;SDS011;22480;50.546;12.292;2024-01-11T07:42:06;66.63;;;30.47;;
36457;SDS011;22480;50.546;12.292;2024-01-11T07:44:32;70.20;;;31.43;;
36457;SDS011;22480;50.546;12.292;2024-01-11T07:46:57;83.53;;;39.20;;
36457;SDS011;22480;50.546;12.292;2024-01-11T07:49:23;117.63;;;53.47;;
36457;SDS011;22480;50.546;12.292;2024-01-11T07:51:48;66.83;;;34.73;;
36457;SDS011;22480;50.546;12.292;2024-01-11T07:54:14;70.50;;;33.53;;
36457;SDS011;22480;50.546;12.292;2024-01-11T07:56:40;59.87;;;29.93;;
36457;SDS011;22480;50.546;12.292;2024-01-11T07:59:06;59.33;;;31.33;;
36457;SDS011;22480;50.546;12.292;2024-01-11T08:01:31;57.77;;;31.00;;
36457;SDS011;22480;50.546;12.292;2024-01-11T08:03:59;67.77;;;30.63;;
36457;SDS011;22480;50.546;12.292;2024-01-11T08:06:27;66.13;;;34.10;;
36457;SDS011;22480;50.546;12.292;2024-01-11T08:08:53;61.97;;;30.87;;
36457;SDS011;22480;50.546;12.292;2024-01-11T08:11:19;60.03;;;28.77;;
36457;SDS011;22480;50.546;12.292;2024-01-11T08:13:45;59.00;;;29.43;;
36457;SDS011;22480;50.546;12.292;2024-01-11T08:16:15;52.03;;;27.27;;
36457;SDS011;22480;50.546;12.292;2024-01-11T08:18:43;51.83;;;26.37;;
36457;SDS011;22480;50.546;12.292;2024-01-11T08:21:10;50.37;;;26.70;;
36457;SDS011;22480;50.546;12.292;2024-01-11T08:23:42;52.07;;;25.10;;
36457;SDS011;22480;50.546;12.292;2024-01-11T08:26:14;47.83;;;24.23;;
36457;SDS011;22480;50.546;12.292;2024-01-11T08:28:40;52.67;;;24.90;;
36457;SDS011;22480;50.546;12.292;2024-01-11T08:31:06;55.90;;;25.60;;
36457;SDS011;22480;50.546;12.292;2024-01-11T08:33:32;55.77;;;28.53;;
36457;SDS011;22480;50.546;12.292;2024-01-11T08:35:58;52.00;;;26.37;;
36457;SDS011;22480;50.546;12.292;2024-01-11T08:38:24;53.43;;;26.60;;
36457;SDS011;22480;50.546;12.292;2024-01-11T08:40:50;50.13;;;26.00;;
36457;SDS011;22480;50.546;12.292;2024-01-11T08:43:16;52.97;;;29.97;;
36457;SDS011;22480;50.546;12.292;2024-01-11T08:45:42;60.10;;;30.00;;
36457;SDS011;22480;50.546;12.292;2024-01-11T08:48:08;58.17;;;29.10;;
36457;SDS011;22480;50.546;12.292;2024-01-11T08:50:35;67.47;;;34.53;;
36457;SDS011;22480;50.546;12.292;2024-01-11T08:53:00;74.47;;;37.73;;
36457;SDS011;22480;50.546;12.292;2024-01-11T08:55:26;80.47;;;41.43;;
36457;SDS011;22480;50.546;12.292;2024-01-11T08:57:52;77.13;;;39.03;;
36457;SDS011;22480;50.546;12.292;2024-01-11T09:00:18;95.77;;;44.30;;
36457;SDS011;22480;50.546;12.292;2024-01-11T09:02:44;126.67;;;54.70;;
36457;SDS011;22480;50.546;12.292;2024-01-11T09:05:10;122.37;;;52.83;;
36457;SDS011;22480;50.546;12.292;2024-01-11T09:07:37;113.93;;;51.10;;
36457;SDS011;22480;50.546;12.292;2024-01-11T09:10:02;137.10;;;56.90;;
36457;SDS011;22480;50.546;12.292;2024-01-11T09:12:28;106.27;;;47.80;;
36457;SDS011;22480;50.546;12.292;2024-01-11T09:14:54;90.70;;;45.60;;
36457;SDS011;22480;50.546;12.292;2024-01-11T09:17:20;109.33;;;52.40;;
36457;SDS011;22480;50.546;12.292;2024-01-11T09:19:46;114.87;;;52.60;;
36457;SDS011;22480;50.546;12.292;2024-01-11T09:22:12;114.40;;;50.23;;
36457;SDS011;22480;50.546;12.292;2024-01-11T09:24:38;104.37;;;47.47;;
36457;SDS011;22480;50.546;12.292;2024-01-11T09:27:04;107.50;;;50.43;;
36457;SDS011;22480;50.546;12.292;2024-01-11T09:29:29;97.20;;;45.00;;
36457;SDS011;22480;50.546;12.292;2024-01-11T09:31:55;91.47;;;44.87;;
36457;SDS011;22480;50.546;12.292;2024-01-11T09:34:21;96.70;;;47.17;;
36457;SDS011;22480;50.546;12.292;2024-01-11T09:36:47;131.50;;;58.93;;
36457;SDS011;22480;50.546;12.292;2024-01-11T09:39:12;119.07;;;55.47;;
36457;SDS011;22480;50.546;12.292;2024-01-11T09:41:40;99.73;;;47.50;;
36457;SDS011;22480;50.546;12.292;2024-01-11T09:44:10;94.63;;;45.87;;
36457;SDS011;22480;50.546;12.292;2024-01-11T09:46:36;100.40;;;46.53;;
36457;SDS011;22480;50.546;12.292;2024-01-11T09:49:02;92.57;;;44.60;;
36457;SDS011;22480;50.546;12.292;2024-01-11T09:51:29;90.70;;;43.47;;
36457;SDS011;22480;50.546;12.292;2024-01-11T09:53:55;87.07;;;44.33;;
36457;SDS011;22480;50.546;12.292;2024-01-11T09:56:24;81.47;;;41.20;;
36457;SDS011;22480;50.546;12.292;2024-01-11T09:58:52;89.47;;;44.60;;
36457;SDS011;22480;50.546;12.292;2024-01-11T10:01:18;83.93;;;42.77;;
36457;SDS011;22480;50.546;12.292;2024-01-11T10:03:44;91.00;;;41.83;;
36457;SDS011;22480;50.546;12.292;2024-01-11T10:06:13;78.10;;;40.93;;
36457;SDS011;22480;50.546;12.292;2024-01-11T10:08:41;90.07;;;43.17;;
36457;SDS011;22480;50.546;12.292;2024-01-11T10:11:06;88.13;;;45.87;;
36457;SDS011;22480;50.546;12.292;2024-01-11T10:13:32;86.80;;;45.10;;
36457;SDS011;22480;50.546;12.292;2024-01-11T10:16:07;84.47;;;44.10;;
36457;SDS011;22480;50.546;12.292;2024-01-11T10:18:35;93.47;;;48.30;;
36457;SDS011;22480;50.546;12.292;2024-01-11T10:21:01;90.07;;;45.30;;
36457;SDS011;22480;50.546;12.292;2024-01-11T10:23:27;96.63;;;50.23;;
36457;SDS011;22480;50.546;12.292;2024-01-11T10:25:56;87.30;;;46.00;;
36457;SDS011;22480;50.546;12.292;2024-01-11T10:28:23;109.60;;;48.93;;
36457;SDS011;22480;50.546;12.292;2024-01-11T10:30:50;96.67;;;48.40;;
36457;SDS011;22480;50.546;12.292;2024-01-11T10:33:19;91.53;;;49.23;;
36457;SDS011;22480;50.546;12.292;2024-01-11T10:35:46;93.57;;;48.30;;
36457;SDS011;22480;50.546;12.292;2024-01-11T10:38:16;67.72;;;36.53;;
36457;SDS011;22480;50.546;12.292;2024-01-11T10:40:42;97.77;;;50.73;;
36457;SDS011;22480;50.546;12.292;2024-01-11T10:43:09;93.47;;;47.07;;
36457;SDS011;22480;50.546;12.292;2024-01-11T10:45:40;95.67;;;48.97;;
36457;SDS011;22480;50.546;12.292;2024-01-11T10:48:11;93.80;;;46.83;;
36457;SDS011;22480;50.546;12.292;2024-01-11T10:50:46;96.20;;;46.93;;
36457;SDS011;22480;50.546;12.292;2024-01-11T10:53:25;93.47;;;48.37;;
36457;SDS011;22480;50.546;12.292;2024-01-11T10:55:54;95.67;;;47.53;;
36457;SDS011;22480;50.546;12.292;2024-01-11T10:58:22;90.50;;;49.13;;
36457;SDS011;22480;50.546;12.292;2024-01-11T11:00:49;95.43;;;50.03;;
36457;SDS011;22480;50.546;12.292;2024-01-11T11:05:45;98.10;;;48.40;;
36457;SDS011;22480;50.546;12.292;2024-01-11T11:08:15;100.87;;;50.10;;
36457;SDS011;22480;50.546;12.292;2024-01-11T11:10:43;93.20;;;48.33;;
36457;SDS011;22480;50.546;12.292;2024-01-11T11:13:10;98.13;;;50.10;;
36457;SDS011;22480;50.546;12.292;2024-01-11T11:15:45;91.80;;;48.13;;
36457;SDS011;22480;50.546;12.292;2024-01-11T11:18:12;81.10;;;46.17;;
36457;SDS011;22480;50.546;12.292;2024-01-11T11:20:39;82.37;;;45.80;;
36457;SDS011;22480;50.546;12.292;2024-01-11T11:23:07;69.03;;;43.03;;
36457;SDS011;22480;50.546;12.292;2024-01-11T11:25:42;69.83;;;41.73;;
36457;SDS011;22480;50.546;12.292;2024-01-11T11:28:13;71.82;;;42.67;;
36457;SDS011;22480;50.546;12.292;2024-01-11T11:33:16;64.00;;;38.80;;
36457;SDS011;22480;50.546;12.292;2024-01-11T11:35:45;61.90;;;39.67;;
36457;SDS011;22480;50.546;12.292;2024-01-11T11:38:18;60.05;;;38.58;;
36457;SDS011;22480;50.546;12.292;2024-01-11T11:40:45;58.40;;;39.38;;
36457;SDS011;22480;50.546;12.292;2024-01-11T11:43:13;59.75;;;40.28;;
36457;SDS011;22480;50.546;12.292;2024-01-11T11:45:41;60.58;;;38.75;;
36457;SDS011;22480;50.546;12.292;2024-01-11T11:51:09;59.13;;;38.10;;
36457;SDS011;22480;50.546;12.292;2024-01-11T11:53:36;60.97;;;38.75;;
36457;SDS011;22480;50.546;12.292;2024-01-11T11:56:02;53.33;;;35.42;;
36457;SDS011;22480;50.546;12.292;2024-01-11T11:58:29;51.10;;;34.80;;
36457;SDS011;22480;50.546;12.292;2024-01-11T12:00:55;60.83;;;36.88;;
36457;SDS011;22480;50.546;12.292;2024-01-11T12:03:28;56.72;;;35.50;;
36457;SDS011;22480;50.546;12.292;2024-01-11T12:06:05;53.88;;;36.00;;
36457;SDS011;22480;50.546;12.292;2024-01-11T12:08:32;53.05;;;35.25;;
36457;SDS011;22480;50.546;12.292;2024-01-11T12:10:59;55.15;;;36.17;;
36457;SDS011;22480;50.546;12.292;2024-01-11T12:13:25;52.70;;;35.20;;
36457;SDS011;22480;50.546;12.292;2024-01-11T12:15:51;53.25;;;36.22;;
36457;SDS011;22480;50.546;12.292;2024-01-11T12:18:17;54.70;;;36.80;;
36457;SDS011;22480;50.546;12.292;2024-01-11T12:20:43;57.08;;;36.35;;
36457;SDS011;22480;50.546;12.292;2024-01-11T12:23:09;54.72;;;38.13;;
36457;SDS011;22480;50.546;12.292;2024-01-11T12:25:35;53.63;;;36.35;;
36457;SDS011;22480;50.546;12.292;2024-01-11T12:28:01;63.92;;;41.30;;
36457;SDS011;22480;50.546;12.292;2024-01-11T12:30:27;50.70;;;36.75;;
36457;SDS011;22480;50.546;12.292;2024-01-11T12:32:55;54.22;;;35.30;;
36457;SDS011;22480;50.546;12.292;2024-01-11T12:35:21;52.55;;;38.30;;
36457;SDS011;22480;50.546;12.292;2024-01-11T12:38:06;59.17;;;39.67;;
36457;SDS011;22480;50.546;12.292;2024-01-11T12:40:32;55.00;;;38.10;;
36457;SDS011;22480;50.546;12.292;2024-01-11T12:43:00;56.70;;;38.30;;
36457;SDS011;22480;50.546;12.292;2024-01-11T12:45:26;54.53;;;38.55;;
36457;SDS011;22480;50.546;12.292;2024-01-11T12:47:52;54.72;;;37.03;;
36457;SDS011;22480;50.546;12.292;2024-01-11T12:50:19;57.35;;;38.40;;
36457;SDS011;22480;50.546;12.292;2024-01-11T12:52:45;53.17;;;35.65;;
36457;SDS011;22480;50.546;12.292;2024-01-11T12:55:18;56.33;;;38.10;;
36457;SDS011;22480;50.546;12.292;2024-01-11T12:57:44;55.58;;;35.13;;
36457;SDS011;22480;50.546;12.292;2024-01-11T13:00:11;56.40;;;35.25;;
36457;SDS011;22480;50.546;12.292;2024-01-11T13:02:38;55.35;;;33.55;;
36457;SDS011;22480;50.546;12.292;2024-01-11T13:05:04;56.70;;;33.67;;
36457;SDS011;22480;50.546;12.292;2024-01-11T13:07:32;51.88;;;33.65;;
36457;SDS011;22480;50.546;12.292;2024-01-11T13:09:59;54.05;;;34.58;;
36457;SDS011;22480;50.546;12.292;2024-01-11T13:12:25;54.85;;;34.60;;
36457;SDS011;22480;50.546;12.292;2024-01-11T13:14:50;52.08;;;34.08;;
36457;SDS011;22480;50.546;12.292;2024-01-11T13:17:18;50.53;;;33.80;;
36457;SDS011;22480;50.546;12.292;2024-01-11T13:19:44;54.33;;;35.65;;
36457;SDS011;22480;50.546;12.292;2024-01-11T13:22:10;53.65;;;34.97;;
36457;SDS011;22480;50.546;12.292;2024-01-11T13:24:36;52.78;;;33.45;;
36457;SDS011;22480;50.546;12.292;2024-01-11T13:27:01;59.28;;;38.47;;
36457;SDS011;22480;50.546;12.292;2024-01-11T13:29:28;56.22;;;35.92;;
36457;SDS011;22480;50.546;12.292;2024-01-11T13:31:53;47.25;;;36.13;;
36457;SDS011;22480;50.546;12.292;2024-01-11T13:34:19;48.80;;;33.97;;
36457;SDS011;22480;50.546;12.292;2024-01-11T13:36:45;50.05;;;32.72;;
36457;SDS011;22480;50.546;12.292;2024-01-11T13:39:11;48.70;;;34.42;;
36457;SDS011;22480;50.546;12.292;2024-01-11T13:41:36;52.22;;;34.50;;
36457;SDS011;22480;50.546;12.292;2024-01-11T13:44:02;48.60;;;33.90;;
36457;SDS011;22480;50.546;12.292;2024-01-11T13:46:30;41.25;;;29.10;;
36457;SDS011;22480;50.546;12.292;2024-01-11T13:48:57;44.83;;;29.40;;
36457;SDS011;22480;50.546;12.292;2024-01-11T13:51:23;33.05;;;22.95;;
36457;SDS011;22480;50.546;12.292;2024-01-11T13:53:49;26.88;;;17.80;;
36457;SDS011;22480;50.546;12.292;2024-01-11T13:56:15;26.38;;;17.05;;
36457;SDS011;22480;50.546;12.292;2024-01-11T13:58:41;27.52;;;16.75;;
36457;SDS011;22480;50.546;12.292;2024-01-11T14:01:09;26.90;;;17.15;;
36457;SDS011;22480;50.546;12.292;2024-01-11T14:03:36;27.17;;;16.60;;
36457;SDS011;22480;50.546;12.292;2024-01-11T14:06:02;28.02;;;17.88;;
36457;SDS011;22480;50.546;12.292;2024-01-11T14:08:28;32.72;;;20.63;;
36457;SDS011;22480;50.546;12.292;2024-01-11T14:10:53;28.77;;;19.48;;
36457;SDS011;22480;50.546;12.292;2024-01-11T14:13:19;34.85;;;21.17;;